Time;durP1;ratioP1;P1;durP2;ratioP2;P2;SDS_P1;SDS_P2;PMS_P1;PMS_P2;Temp;Humidity;BMP_temperature;BMP_pressure;BME280_temperature;BME280_humidity;BME280_pressure;Samples;Min_cycle;Max_cycle;Signal;HPM_P1;HPM_P2
2021/06/27 00:02:22;;;;;;;8.60;2.53;;;;;;;24.84;58.23;95018.72;5047864;28;20439;-74
2021/06/27 00:04:48;;;;;;;6.20;2.83;;;;;;;24.50;58.46;94962.41;5047962;28;20040;-74
2021/06/27 00:07:14;;;;;;;10.32;2.67;;;;;;;24.85;58.62;95015.47;5047745;28;20028;-74
2021/06/27 00:09:41;;;;;;;8.60;2.30;;;;;;;24.82;58.61;95021.97;5048325;28;20392;-74
2021/06/27 00:12:07;;;;;;;9.02;2.75;;;;;;;24.83;58.80;95028.94;5047422;28;20581;-74
2021/06/27 00:14:33;;;;;;;6.45;2.50;;;;;;;24.48;58.88;94975.81;5047943;28;20344;-74
2021/06/27 00:16:58;;;;;;;6.97;2.42;;;;;;;24.76;58.98;95028.06;5027815;28;20614;-74
2021/06/27 00:19:24;;;;;;;8.85;2.80;;;;;;;24.73;58.72;95020.91;5047669;28;20040;-74
2021/06/27 00:21:49;;;;;;;7.63;2.65;;;;;;;24.45;58.71;94983.06;5047257;28;20025;-74
2021/06/27 00:24:15;;;;;;;8.57;2.70;;;;;;;24.66;58.66;95016.00;5046916;28;20539;-74
2021/06/27 00:26:41;;;;;;;11.50;3.53;;;;;;;24.64;58.59;95016.53;5047518;28;20029;-74
2021/06/27 00:29:06;;;;;;;7.57;2.83;;;;;;;24.62;58.73;95007.38;5047211;28;20510;-74
2021/06/27 00:31:31;;;;;;;9.70;2.63;;;;;;;24.62;59.09;95010.09;5055992;28;20039;-74
2021/06/27 00:33:57;;;;;;;7.38;2.97;;;;;;;24.65;58.86;95009.06;5057815;28;20021;-74
2021/06/27 00:36:23;;;;;;;6.50;2.60;;;;;;;24.60;58.50;94994.25;5066148;28;20066;-74
2021/06/27 00:38:48;;;;;;;6.53;2.22;;;;;;;24.74;58.81;95003.22;5066960;28;20028;-74
2021/06/27 00:41:14;;;;;;;8.50;2.35;;;;;;;24.78;58.46;95009.16;5067312;28;20024;-74
2021/06/27 00:43:39;;;;;;;10.57;2.67;;;;;;;24.71;58.84;94994.09;5067364;28;20017;-74
2021/06/27 00:46:05;;;;;;;6.78;2.15;;;;;;;24.66;58.82;94997.63;5067087;28;20017;-73
2021/06/27 00:48:30;;;;;;;6.63;2.60;;;;;;;24.69;58.77;94995.88;5065773;28;20495;-74
2021/06/27 00:50:56;;;;;;;8.20;2.33;;;;;;;24.71;58.15;95004.25;5065914;28;20845;-74
2021/06/27 00:53:22;;;;;;;7.53;2.95;;;;;;;24.74;58.03;95004.00;5052835;28;20564;-74
2021/06/27 00:55:54;;;;;;;7.72;2.25;;;;;;;24.75;58.33;95004.72;5046876;28;20029;-74
2021/06/27 00:58:27;;;;;;;6.38;2.67;;;;;;;24.67;58.58;94992.94;5046903;28;20029;-74
2021/06/27 01:00:52;;;;;;;9.32;2.70;;;;;;;24.69;58.54;95001.31;5047331;28;20406;-74
2021/06/27 01:03:18;;;;;;;8.82;2.50;;;;;;;24.70;58.39;94998.06;5046812;28;20116;-75
2021/06/27 01:05:43;;;;;;;6.43;2.65;;;;;;;24.75;58.14;94999.25;5046125;28;20028;-74
2021/06/27 01:08:09;;;;;;;6.82;2.50;;;;;;;24.67;58.09;94988.19;5027575;28;20018;-74
2021/06/27 01:10:34;;;;;;;7.70;2.83;;;;;;;24.68;58.30;94983.44;5047075;28;20020;-74
2021/06/27 01:13:00;;;;;;;6.55;2.10;;;;;;;24.69;58.30;94979.47;5047130;28;20096;-74
2021/06/27 01:15:25;;;;;;;6.28;2.45;;;;;;;24.67;58.00;94982.00;5046624;28;20028;-74
2021/06/27 01:17:52;;;;;;;7.72;2.33;;;;;;;24.62;57.92;94974.59;5046352;28;20068;-74
2021/06/27 01:20:23;;;;;;;6.57;2.17;;;;;;;24.60;58.07;94966.19;5046900;28;20028;-74
2021/06/27 01:22:48;;;;;;;8.27;2.67;;;;;;;24.51;58.52;94963.84;5046893;28;20096;-74
2021/06/27 01:25:18;;;;;;;8.13;2.60;;;;;;;24.51;58.06;94969.31;5046348;28;20522;-74
2021/06/27 01:27:44;;;;;;;9.40;2.50;;;;;;;24.46;58.45;94967.41;5046310;28;20021;-74
2021/06/27 01:30:10;;;;;;;8.20;2.42;;;;;;;24.45;58.18;94963.94;5046670;28;20029;-74
2021/06/27 01:32:40;;;;;;;9.13;2.25;;;;;;;24.40;58.45;94953.09;5046375;28;20087;-74
2021/06/27 01:35:13;;;;;;;7.60;2.42;;;;;;;24.42;57.99;94953.31;5046549;28;20483;-74
2021/06/27 01:37:42;;;;;;;7.10;2.28;;;;;;;24.42;58.03;94956.03;5046571;28;20120;-74
2021/06/27 01:40:08;;;;;;;7.93;2.87;;;;;;;24.41;57.86;94954.56;5046427;28;20036;-74
2021/06/27 01:42:33;;;;;;;5.93;1.98;;;;;;;24.43;57.87;94947.31;5046258;28;20810;-74
2021/06/27 01:45:06;;;;;;;5.68;2.20;;;;;;;24.50;58.05;94959.66;5046428;28;20021;-74
2021/06/27 01:47:31;;;;;;;7.43;2.75;;;;;;;24.51;57.96;94959.16;5029112;28;20028;-74
2021/06/27 01:49:57;;;;;;;6.60;2.38;;;;;;;24.50;57.49;94967.84;5046662;28;20031;-74
2021/06/27 01:52:22;;;;;;;5.28;2.15;;;;;;;24.49;57.86;94966.38;5046648;28;20193;-74
2021/06/27 01:54:47;;;;;;;6.50;2.70;;;;;;;24.46;57.85;94981.06;5046340;28;20499;-74
2021/06/27 01:57:20;;;;;;;6.93;2.30;;;;;;;24.42;57.61;94972.41;5046289;28;20039;-74
2021/06/27 01:59:47;;;;;;;9.02;3.05;;;;;;;24.37;57.49;94970.50;5046176;28;20086;-74
2021/06/27 02:02:16;;;;;;;8.18;2.38;;;;;;;24.34;57.63;94960.63;5048608;28;20463;-74
2021/06/27 02:04:41;;;;;;;5.70;2.35;;;;;;;24.25;58.17;94960.94;5050134;28;20102;-74
2021/06/27 02:07:07;;;;;;;5.75;2.42;;;;;;;24.25;57.98;94962.94;5030792;28;20463;-74
2021/06/27 02:09:32;;;;;;;8.63;2.28;;;;;;;24.25;58.25;94955.50;5049965;28;20116;-74
2021/06/27 02:11:58;;;;;;;6.32;2.28;;;;;;;24.25;57.84;94952.75;5050447;28;20028;-74
2021/06/27 02:14:23;;;;;;;8.70;2.83;;;;;;;24.22;57.96;94942.88;5049848;28;20423;-74
2021/06/27 02:16:49;;;;;;;7.38;2.80;;;;;;;24.16;58.17;94953.13;5049444;28;20024;-74
2021/06/27 02:19:14;;;;;;;8.80;3.10;;;;;;;24.15;58.51;94959.84;5049624;28;20120;-74
2021/06/27 02:21:40;;;;;;;7.60;2.28;;;;;;;24.18;58.00;94972.44;5049695;28;20039;-74
2021/06/27 02:24:06;;;;;;;7.30;2.63;;;;;;;24.20;57.73;94956.31;5049546;28;20035;-74
2021/06/27 02:26:31;;;;;;;6.80;2.38;;;;;;;24.23;57.68;94960.75;5050309;28;20025;-74
2021/06/27 02:28:57;;;;;;;6.47;2.25;;;;;;;24.25;57.31;94949.31;5031361;28;20629;-74
2021/06/27 02:31:23;;;;;;;6.50;2.40;;;;;;;24.26;57.63;94948.03;5050127;28;20032;-74
2021/06/27 02:33:48;;;;;;;7.25;2.42;;;;;;;24.31;56.99;94939.78;5049230;28;20415;-74
2021/06/27 02:36:14;;;;;;;6.05;2.28;;;;;;;24.29;57.06;94947.75;5031621;28;20032;-74
2021/06/27 02:38:39;;;;;;;7.07;2.50;;;;;;;24.32;57.06;94952.19;5049643;28;20025;-74
2021/06/27 02:41:05;;;;;;;5.88;2.50;;;;;;;24.34;57.29;94949.69;5049534;28;20036;-74
2021/06/27 02:43:31;;;;;;;9.45;2.53;;;;;;;24.28;57.62;94959.91;5050081;28;20021;-74
2021/06/27 02:45:56;;;;;;;7.80;2.38;;;;;;;24.25;57.28;94963.69;5049163;28;20029;-74
2021/06/27 02:48:22;;;;;;;7.20;2.55;;;;;;;24.24;57.67;94961.47;5048997;28;20033;-74
2021/06/27 02:50:47;;;;;;;10.07;2.75;;;;;;;24.23;57.95;94960.75;5049255;28;20036;-74
2021/06/27 02:53:13;;;;;;;6.28;2.22;;;;;;;24.23;57.70;94971.66;5049053;28;20028;-74
2021/06/27 02:55:38;;;;;;;6.45;2.53;;;;;;;24.24;57.71;94973.13;5049494;28;20079;-74
2021/06/27 02:58:04;;;;;;;8.32;2.25;;;;;;;24.21;57.92;94984.31;5048907;28;20051;-74
2021/06/27 03:00:29;;;;;;;6.28;2.28;;;;;;;24.17;57.98;94979.16;5048953;28;20415;-74
2021/06/27 03:02:56;;;;;;;8.55;3.10;;;;;;;24.16;57.84;94988.59;5048898;28;20499;-74
2021/06/27 03:05:21;;;;;;;8.95;2.47;;;;;;;24.15;57.84;94997.31;5048841;28;20048;-74
2021/06/27 03:07:47;;;;;;;6.65;2.42;;;;;;;24.21;57.82;94995.97;5048708;28;20036;-74
2021/06/27 03:10:14;;;;;;;8.25;2.58;;;;;;;24.18;57.59;94991.53;5049196;28;20124;-74
2021/06/27 03:12:44;;;;;;;7.75;3.42;;;;;;;24.12;57.63;94993.59;5048256;28;20036;-74
2021/06/27 03:15:11;;;;;;;7.25;2.28;;;;;;;24.12;57.67;94993.59;5048432;28;20036;-74
2021/06/27 03:17:36;;;;;;;5.50;2.00;;;;;;;24.12;57.91;94999.06;5048468;28;20700;-74
2021/06/27 03:20:03;;;;;;;7.88;2.30;;;;;;;24.07;57.60;94988.22;5047777;28;20039;-74
2021/06/27 03:22:28;;;;;;;8.48;3.17;;;;;;;23.54;57.77;94906.50;5048873;28;20479;-74
2021/06/27 03:24:54;;;;;;;8.40;2.60;;;;;;;24.12;57.60;94993.59;5048645;28;20025;-74
2021/06/27 03:27:20;;;;;;;6.93;2.80;;;;;;;23.81;58.14;94954.56;5048624;28;20018;-74
2021/06/27 03:29:46;;;;;;;7.07;2.78;;;;;;;23.64;58.28;94929.47;5014660;28;20086;-74
2021/06/27 03:32:11;;;;;;;7.47;2.88;;;;;;;23.81;58.15;94954.56;5048707;28;20028;-74
2021/06/27 03:34:37;;;;;;;6.38;2.70;;;;;;;24.05;58.22;94988.75;5029789;28;20060;-74
2021/06/27 03:37:03;;;;;;;7.82;2.75;;;;;;;24.12;57.99;95001.06;5048085;28;20029;-74
2021/06/27 03:39:28;;;;;;;9.95;2.78;;;;;;;24.11;58.30;94997.59;5048242;28;20098;-74
2021/06/27 03:41:54;;;;;;;6.32;2.50;;;;;;;24.19;57.75;95001.22;5048294;28;20419;-74
2021/06/27 03:44:23;;;;;;;10.50;2.42;;;;;;;24.13;58.27;95000.53;5048576;28;20551;-74
2021/06/27 03:46:49;;;;;;;8.52;2.50;;;;;;;24.15;57.90;95003.50;5048249;28;20052;-74
2021/06/27 03:49:14;;;;;;;8.55;3.22;;;;;;;24.06;58.51;94984.75;5048015;28;20106;-74
2021/06/27 03:51:40;;;;;;;10.55;2.85;;;;;;;24.13;58.07;95006.00;5048270;28;20131;-74
2021/06/27 03:54:06;;;;;;;4.72;2.05;;;;;;;23.74;57.46;94941.50;5048477;28;20061;-74
2021/06/27 03:56:31;;;;;;;6.30;2.33;;;;;;;24.20;57.90;94999.97;5027781;28;20459;-74
2021/06/27 03:58:57;;;;;;;7.28;2.25;;;;;;;24.15;57.94;94997.31;5043656;28;20027;-74
2021/06/27 04:01:22;;;;;;;9.00;2.40;;;;;;;24.21;57.72;94995.97;5028022;28;20063;-74
2021/06/27 04:03:47;;;;;;;6.70;2.65;;;;;;;24.29;57.76;95007.81;5045161;28;20044;-75
2021/06/27 04:06:13;;;;;;;8.75;2.40;;;;;;;24.33;57.43;95008.25;5027741;28;20507;-74
2021/06/27 04:08:38;;;;;;;6.45;2.45;;;;;;;23.89;57.18;94948.75;5044992;28;20017;-74
2021/06/27 04:11:04;;;;;;;8.85;2.50;;;;;;;24.39;56.91;94996.03;5010330;28;20021;-74
2021/06/27 04:13:31;;;;;;;7.95;2.60;;;;;;;24.44;57.12;95002.69;5048218;28;20024;-74
2021/06/27 04:15:56;;;;;;;7.18;2.40;;;;;;;24.48;57.40;95000.38;5044172;28;20023;-74
2021/06/27 04:18:22;;;;;;;9.27;2.85;;;;;;;24.43;57.16;94993.00;5039348;28;20705;-74
2021/06/27 04:20:48;;;;;;;7.95;2.70;;;;;;;24.51;57.17;95007.53;5032033;28;20025;-74
2021/06/27 04:23:13;;;;;;;5.72;2.60;;;;;;;24.53;56.93;95005.03;5042284;28;20021;-75
2021/06/27 04:25:39;;;;;;;7.47;2.63;;;;;;;24.52;56.95;95014.47;5039894;28;20035;-73
2021/06/27 04:28:06;;;;;;;6.68;2.70;;;;;;;24.55;57.17;95018.91;5041332;28;20100;-74
2021/06/27 04:30:32;;;;;;;8.52;2.78;;;;;;;24.58;56.76;95020.59;5040981;28;20029;-73
2021/06/27 04:32:57;;;;;;;5.70;2.63;;;;;;;24.60;57.39;95018.09;5037576;28;20021;-73
2021/06/27 04:35:22;;;;;;;5.13;2.15;;;;;;;24.62;56.91;95019.06;5036447;28;20021;-73
2021/06/27 04:37:48;;;;;;;7.15;2.70;;;;;;;24.63;57.20;95019.78;5026162;28;20029;-73
2021/06/27 04:40:13;;;;;;;6.20;2.83;;;;;;;24.67;56.86;95033.88;5040566;28;20037;-73
2021/06/27 04:42:39;;;;;;;6.88;2.90;;;;;;;24.57;56.97;95000.00;5038749;28;20502;-73
2021/06/27 04:45:05;;;;;;;8.13;2.80;;;;;;;24.71;57.11;95020.66;5036631;28;20032;-73
2021/06/27 04:47:30;;;;;;;8.27;3.10;;;;;;;24.69;57.01;95039.56;5034693;28;20379;-73
2021/06/27 04:49:56;;;;;;;8.98;2.85;;;;;;;24.72;56.98;95027.59;5032961;28;20040;-73
2021/06/27 04:52:21;;;;;;;7.32;2.70;;;;;;;24.75;57.03;95026.56;5035018;28;20524;-74
2021/06/27 04:54:48;;;;;;;6.05;2.40;;;;;;;24.80;57.35;95028.47;5034078;28;20541;-73
2021/06/27 04:57:14;;;;;;;7.38;2.53;;;;;;;24.83;57.12;95028.19;5037757;28;20032;-73
2021/06/27 04:59:39;;;;;;;7.10;2.72;;;;;;;24.86;57.07;95033.34;5038562;28;20017;-73
2021/06/27 05:02:05;;;;;;;13.07;3.00;;;;;;;24.88;56.88;95025.38;5037110;28;20035;-74
2021/06/27 05:04:30;;;;;;;7.88;3.25;;;;;;;24.84;57.21;95024.94;5046295;28;20101;-74
2021/06/27 05:06:55;;;;;;;9.20;3.40;;;;;;;24.95;57.00;95032.97;5043133;28;20017;-73
2021/06/27 05:09:21;;;;;;;7.00;3.40;;;;;;;24.90;57.23;95033.03;5057655;28;20032;-75
2021/06/27 05:11:46;;;;;;;7.10;3.00;;;;;;;24.86;57.55;95035.34;5067159;28;20005;-74
2021/06/27 05:14:12;;;;;;;8.15;3.03;;;;;;;24.74;57.88;95014.16;5065476;28;20047;-77
2021/06/27 05:16:37;;;;;;;7.35;3.42;;;;;;;24.84;57.76;95035.88;5027110;28;20429;-81
2021/06/27 05:19:03;;;;;;;12.15;3.88;;;;;;;24.85;57.76;95026.41;5035106;28;20484;-80
2021/06/27 05:21:28;;;;;;;8.50;3.65;;;;;;;24.84;57.90;95029.66;5044919;28;20037;-74
2021/06/27 05:23:54;;;;;;;11.00;3.58;;;;;;;24.83;57.89;95028.94;5040144;28;20029;-74
2021/06/27 05:26:19;;;;;;;8.13;3.70;;;;;;;24.83;58.31;95028.94;5040483;28;20025;-74
2021/06/27 05:28:45;;;;;;;8.73;3.67;;;;;;;24.82;58.91;95021.97;5021880;28;20013;-75
2021/06/27 05:31:10;;;;;;;11.05;4.05;;;;;;;24.86;59.44;95016.97;5037162;28;20029;-75
2021/06/27 05:33:35;;;;;;;10.50;3.90;;;;;;;24.77;60.13;95002.19;5039038;28;20030;-77
2021/06/27 05:36:01;;;;;;;11.95;3.63;;;;;;;24.74;59.54;94997.78;5044849;28;20029;-73
2021/06/27 05:38:27;;;;;;;8.05;3.42;;;;;;;24.92;59.61;95028.53;5050698;28;20056;-73
2021/06/27 05:40:52;;;;;;;9.10;3.78;;;;;;;24.96;59.63;95031.72;5064462;28;20040;-72
2021/06/27 05:43:18;;;;;;;9.38;3.30;;;;;;;24.94;59.53;95022.56;5050860;28;20495;-75
2021/06/27 05:45:43;;;;;;;8.65;3.63;;;;;;;25.02;59.32;95026.94;5049088;28;20044;-76
2021/06/27 05:48:09;;;;;;;11.35;3.65;;;;;;;25.14;59.29;95031.00;5048375;28;20017;-79
2021/06/27 05:50:34;;;;;;;10.68;3.67;;;;;;;25.24;58.92;95034.06;5038789;28;20025;-78
2021/06/27 05:53:00;;;;;;;8.88;3.50;;;;;;;25.31;58.90;95039.66;5037884;28;20047;-76
2021/06/27 05:55:25;;;;;;;7.13;3.67;;;;;;;25.40;57.70;95042.00;5039641;28;20028;-73
2021/06/27 05:57:51;;;;;;;8.88;2.90;;;;;;;25.52;57.63;95032.34;5044550;28;20083;-74
2021/06/27 06:00:17;;;;;;;10.38;3.33;;;;;;;25.67;57.03;95038.09;5042617;28;20090;-72
2021/06/27 06:02:42;;;;;;;9.85;3.28;;;;;;;25.71;57.08;95039.25;5047131;28;20025;-73
2021/06/27 06:05:08;;;;;;;10.75;3.10;;;;;;;25.83;56.50;95030.31;5036725;28;20119;-73
2021/06/27 06:07:33;;;;;;;12.02;3.63;;;;;;;25.92;56.65;95035.38;5021523;28;20021;-74
2021/06/27 06:09:59;;;;;;;9.13;3.30;;;;;;;26.03;56.06;95042.66;5038131;28;20030;-74
2021/06/27 06:12:24;;;;;;;7.35;2.97;;;;;;;26.12;55.72;95028.56;5019472;28;20532;-75
2021/06/27 06:14:50;;;;;;;6.65;3.75;;;;;;;26.28;55.36;95036.47;5031308;28;20036;-75
2021/06/27 06:17:15;;;;;;;8.65;2.90;;;;;;;26.42;54.72;95035.19;5031793;28;20032;-75
2021/06/27 06:19:41;;;;;;;12.65;3.65;;;;;;;26.49;54.60;95037.28;5030831;28;20079;-78
2021/06/27 06:22:06;;;;;;;12.43;3.10;;;;;;;26.66;53.83;95040.41;5031121;28;20079;-75
2021/06/27 06:24:32;;;;;;;8.20;3.25;;;;;;;26.76;53.26;95030.50;5035754;28;20021;-76
2021/06/27 06:26:57;;;;;;;9.68;2.85;;;;;;;26.82;53.20;95035.31;5029860;28;20021;-75
2021/06/27 06:29:23;;;;;;;9.23;2.97;;;;;;;26.90;53.15;95030.66;5030575;28;20033;-74
2021/06/27 06:31:48;;;;;;;8.77;2.75;;;;;;;26.99;53.25;95030.22;5045660;28;20040;-74
2021/06/27 06:34:14;;;;;;;7.68;2.72;;;;;;;27.09;53.29;95025.75;5032157;28;20036;-79
2021/06/27 06:36:39;;;;;;;9.05;2.45;;;;;;;27.25;53.08;95033.59;5026467;28;20033;-75
2021/06/27 06:39:05;;;;;;;7.82;2.60;;;;;;;27.33;52.59;95028.91;5049033;28;20025;-79
2021/06/27 06:41:30;;;;;;;8.73;2.58;;;;;;;27.41;52.55;95020.75;5046471;28;20025;-75
2021/06/27 06:43:56;;;;;;;7.90;2.50;;;;;;;27.50;52.00;95014.81;5042329;28;20044;-75
2021/06/27 06:46:21;;;;;;;7.65;2.35;;;;;;;27.63;51.39;95031.22;5029232;28;20063;-75
2021/06/27 06:48:47;;;;;;;6.88;2.85;;;;;;;27.73;51.39;95026.72;5028193;28;20029;-74
2021/06/27 06:51:12;;;;;;;8.50;2.00;;;;;;;27.72;51.32;95030.75;5027807;28;20037;-74
2021/06/27 06:53:38;;;;;;;8.20;2.42;;;;;;;27.80;50.69;95027.53;5027773;28;20037;-75
2021/06/27 06:56:03;;;;;;;7.00;2.25;;;;;;;27.86;50.62;95025.38;5026971;28;20419;-75
2021/06/27 06:58:29;;;;;;;5.57;2.08;;;;;;;27.88;50.26;95019.34;5024268;28;20033;-76
2021/06/27 07:01:01;;;;;;;7.85;2.10;;;;;;;27.98;50.44;95021.06;5023439;28;20026;-77
2021/06/27 07:03:27;;;;;;;5.38;2.15;;;;;;;27.94;50.59;95015.16;5029849;28;20473;-77
2021/06/27 07:05:52;;;;;;;8.35;2.50;;;;;;;27.96;50.36;95023.59;5043251;28;20025;-76
2021/06/27 07:08:18;;;;;;;8.00;2.70;;;;;;;28.02;50.15;95032.41;5040490;28;20492;-77
2021/06/27 07:10:43;;;;;;;6.88;2.78;;;;;;;28.10;49.69;95038.75;5045333;28;20478;-73
2021/06/27 07:13:08;;;;;;;7.88;2.67;;;;;;;28.12;50.23;95036.19;5052606;28;20483;-74
2021/06/27 07:15:34;;;;;;;8.32;2.80;;;;;;;28.13;50.48;95032.16;5060263;28;20033;-74
2021/06/27 07:17:59;;;;;;;8.02;2.70;;;;;;;28.23;50.02;95036.59;5049600;28;20044;-73
2021/06/27 07:20:25;;;;;;;7.07;2.30;;;;;;;28.20;49.94;95031.47;5050337;28;20031;-73
2021/06/27 07:22:50;;;;;;;6.43;2.50;;;;;;;28.20;50.19;95036.97;5048674;28;20063;-73
2021/06/27 07:25:16;;;;;;;6.60;2.33;;;;;;;28.21;50.11;95027.44;5049950;28;20430;-77
2021/06/27 07:27:41;;;;;;;6.97;2.70;;;;;;;28.28;50.34;95032.22;5042363;28;20047;-74
2021/06/27 07:30:07;;;;;;;8.60;2.67;;;;;;;28.29;49.81;95014.47;5044211;28;20599;-79
2021/06/27 07:32:33;;;;;;;7.10;2.75;;;;;;;28.48;49.41;95023.19;5024869;28;20444;-72
2021/06/27 07:34:58;;;;;;;7.82;2.63;;;;;;;28.54;50.11;95021.03;5045129;28;20036;-75
2021/06/27 07:37:24;;;;;;;4.22;2.58;;;;;;;28.62;49.81;95024.53;5041015;28;20032;-75
2021/06/27 07:39:49;;;;;;;7.18;2.55;;;;;;;28.62;48.92;95019.75;5043963;28;20025;-74
2021/06/27 07:42:15;;;;;;;5.72;2.65;;;;;;;28.63;48.84;95028.75;5023479;28;20029;-73
2021/06/27 07:44:40;;;;;;;7.32;2.53;;;;;;;28.51;49.94;95011.13;5039654;28;20396;-73
2021/06/27 07:47:06;;;;;;;5.95;2.70;;;;;;;28.54;49.66;95026.53;5038405;28;20036;-73
2021/06/27 07:49:31;;;;;;;7.45;2.53;;;;;;;28.56;49.29;95024.69;5039738;28;20037;-73
2021/06/27 07:51:57;;;;;;;9.43;2.90;;;;;;;28.54;49.21;95026.53;5039195;28;20014;-73
2021/06/27 07:54:22;;;;;;;5.85;2.47;;;;;;;28.57;49.62;95019.94;5042014;28;20178;-73
2021/06/27 07:56:48;;;;;;;8.45;2.88;;;;;;;28.61;49.53;95020.31;5047829;28;20028;-75
2021/06/27 07:59:14;;;;;;;7.28;3.00;;;;;;;28.73;49.35;95020.22;5049509;28;20025;-75
2021/06/27 08:01:40;;;;;;;9.73;3.22;;;;;;;28.89;48.68;95018.25;5047671;28;20111;-74
2021/06/27 08:04:05;;;;;;;7.85;2.90;;;;;;;28.88;48.66;95023.00;5047936;28;20052;-75
2021/06/27 08:06:31;;;;;;;7.75;2.90;;;;;;;28.88;48.67;95028.50;5049344;28;20035;-75
2021/06/27 08:08:56;;;;;;;6.65;2.80;;;;;;;29.02;48.04;95021.56;5040613;28;20024;-75
2021/06/27 08:11:21;;;;;;;6.55;2.47;;;;;;;28.63;48.47;94968.31;5051930;28;20029;-75
2021/06/27 08:13:47;;;;;;;5.75;2.60;;;;;;;29.21;46.71;95022.00;5029888;28;20036;-75
2021/06/27 08:16:12;;;;;;;7.95;3.13;;;;;;;29.25;46.06;95022.38;5051267;28;20144;-75
2021/06/27 08:18:38;;;;;;;4.35;2.47;;;;;;;29.41;45.66;95015.63;5047717;28;20029;-76
2021/06/27 08:21:03;;;;;;;5.95;2.47;;;;;;;29.53;45.60;95016.72;5050223;28;20479;-75
2021/06/27 08:23:29;;;;;;;5.38;2.80;;;;;;;29.39;46.11;95004.44;5047256;28;20116;-75
2021/06/27 08:25:54;;;;;;;7.38;2.53;;;;;;;29.24;46.93;95013.41;5049048;28;20025;-75
2021/06/27 08:28:20;;;;;;;5.93;2.63;;;;;;;28.84;47.01;94967.63;5047923;28;20017;-73
2021/06/27 08:30:45;;;;;;;4.60;2.55;;;;;;;29.07;46.89;94995.91;5045999;28;20366;-79
2021/06/27 08:33:11;;;;;;;6.28;2.65;;;;;;;29.18;44.23;95012.81;5027908;28;20021;-77
2021/06/27 08:35:36;;;;;;;6.72;2.40;;;;;;;29.03;43.50;95017.56;5047345;28;20021;-78
2021/06/27 08:38:02;;;;;;;5.43;2.30;;;;;;;28.30;42.46;94947.28;5048198;28;20086;-78
2021/06/27 08:40:27;;;;;;;5.05;2.40;;;;;;;28.27;42.11;95003.31;5050004;28;20040;-79
2021/06/27 08:42:53;;;;;;;5.57;2.28;;;;;;;28.17;42.79;95005.09;5045418;28;20108;-79
2021/06/27 08:45:19;;;;;;;4.68;2.00;;;;;;;28.10;42.35;94989.31;5045912;28;20021;-80
2021/06/27 08:47:45;;;;;;;5.97;2.35;;;;;;;27.67;42.03;94941.06;5029517;28;20078;-77
2021/06/27 08:50:12;;;;;;;3.45;2.08;;;;;;;27.93;42.41;94997.22;5032533;28;20086;-77
2021/06/27 08:52:38;;;;;;;4.63;2.15;;;;;;;27.81;41.68;94979.56;5048144;28;20029;-76
2021/06/27 08:55:04;;;;;;;6.60;2.53;;;;;;;27.98;42.89;94999.09;5043200;28;20414;-77
2021/06/27 08:57:29;;;;;;;4.72;2.20;;;;;;;28.03;43.12;95000.22;5044531;28;20024;-78
2021/06/27 08:59:57;;;;;;;5.07;2.13;;;;;;;28.01;43.17;95003.50;5047531;28;20396;-77
2021/06/27 09:02:22;;;;;;;5.90;2.40;;;;;;;28.06;44.75;95005.38;5030313;28;20017;-78
2021/06/27 09:04:47;;;;;;;3.70;2.00;;;;;;;28.13;46.06;95003.97;5037025;28;20036;-76
2021/06/27 09:07:27;;;;;;;4.38;2.33;;;;;;;28.15;46.51;94995.94;5047182;28;20014;-76
2021/06/27 09:09:53;;;;;;;4.95;2.00;;;;;;;28.12;47.52;94980.53;5038027;28;20029;-79
2021/06/27 09:12:18;;;;;;;5.80;1.95;;;;;;;28.26;48.01;94996.34;5026662;28;20041;-75
2021/06/27 09:14:44;;;;;;;3.50;2.38;;;;;;;28.18;48.39;94972.88;5036005;28;20022;-76
2021/06/27 09:17:17;;;;;;;4.80;2.15;;;;;;;28.33;48.79;94990.16;5045385;28;20109;-79
2021/06/27 09:20:03;;;;;;;5.25;1.83;;;;;;;28.23;49.40;94980.94;5047842;28;20025;-76
2021/06/27 09:22:32;;;;;;;3.95;2.20;;;;;;;28.24;49.46;94971.44;5053115;28;20089;-79
2021/06/27 09:25:15;;;;;;;4.15;1.90;;;;;;;28.34;50.34;94994.34;5048110;28;20025;-77
2021/06/27 09:27:40;;;;;;;3.55;2.25;;;;;;;28.38;50.92;94975.53;5046856;28;20416;-77
2021/06/27 09:30:16;;;;;;;3.55;1.75;;;;;;;28.40;51.52;94994.94;5047563;28;20056;-78
2021/06/27 09:32:57;;;;;;;3.00;1.50;;;;;;;28.43;51.39;94993.84;5046986;28;20033;-78
2021/06/27 09:35:49;;;;;;;3.20;1.95;;;;;;;28.46;51.71;94990.00;5047074;28;20028;-78
2021/06/27 09:38:28;;;;;;;4.97;2.22;;;;;;;28.45;51.93;94991.31;5047219;28;20037;-77
2021/06/27 09:41:03;;;;;;;4.18;1.90;;;;;;;28.44;52.23;94985.06;5061159;28;20050;-79
2021/06/27 09:43:30;;;;;;;2.70;1.67;;;;;;;28.48;52.11;94990.22;5047300;28;20500;-78
2021/06/27 09:45:57;;;;;;;3.03;1.67;;;;;;;28.47;51.94;94981.22;5027250;28;20040;-78
2021/06/27 09:48:24;;;;;;;3.80;1.80;;;;;;;28.41;51.27;94964.16;5025743;28;20018;-78
2021/06/27 09:50:50;;;;;;;4.10;1.70;;;;;;;28.48;51.37;94974.47;5052582;28;20020;-76
2021/06/27 09:53:38;;;;;;;3.78;1.67;;;;;;;28.52;50.17;94985.09;5052917;28;20020;-75
2021/06/27 09:56:05;;;;;;;4.35;1.70;;;;;;;28.38;49.84;94956.28;5046691;28;20029;-75
2021/06/27 09:58:31;;;;;;;2.83;1.63;;;;;;;28.01;50.05;94910.16;5032318;28;20078;-77
2021/06/27 10:00:57;;;;;;;2.55;1.50;;;;;;;28.44;49.77;94970.59;5014204;28;20017;-76
2021/06/27 10:03:24;;;;;;;2.50;1.60;;;;;;;28.43;49.71;94971.88;5048562;28;20029;-78
2021/06/27 10:05:50;;;;;;;3.17;1.80;;;;;;;28.29;48.65;94951.31;5047086;28;20033;-77
2021/06/27 10:08:41;;;;;;;4.22;1.67;;;;;;;28.25;48.16;94942.66;5019830;28;20671;-76
2021/06/27 10:11:15;;;;;;;3.22;1.50;;;;;;;28.43;47.69;94966.38;5027059;28;20033;-77
2021/06/27 10:13:46;;;;;;;4.93;1.95;;;;;;;28.07;46.68;94913.47;5052988;28;20096;-90
2021/06/27 10:16:15;;;;;;;3.05;1.60;;;;;;;28.43;46.59;94966.38;5034876;28;20033;-77
2021/06/27 10:18:41;;;;;;;2.10;1.35;;;;;;;28.31;46.55;94948.75;5047351;28;20033;-77
2021/06/27 10:21:07;;;;;;;3.50;1.80;;;;;;;28.40;47.15;94946.22;5055739;28;20039;-75
2021/06/27 10:23:33;;;;;;;3.88;1.63;;;;;;;28.50;46.50;94960.19;5035675;28;20166;-81
2021/06/27 10:25:58;;;;;;;2.35;1.42;;;;;;;28.50;45.83;94976.66;5032853;28;20028;-76
2021/06/27 10:28:24;;;;;;;3.03;1.50;;;;;;;28.12;45.89;94909.84;5032192;28;20036;-83
2021/06/27 10:30:50;;;;;;;2.80;1.50;;;;;;;28.52;45.92;94963.09;5012153;28;20462;-78
2021/06/27 10:33:15;;;;;;;3.38;1.70;;;;;;;28.10;46.16;94890.47;5036998;28;20550;-83
2021/06/27 10:35:48;;;;;;;2.88;1.60;;;;;;;28.63;46.27;94951.81;5035125;28;20028;-81
2021/06/27 10:38:13;;;;;;;2.35;1.25;;;;;;;28.54;45.48;94949.56;5050806;28;20036;-79
2021/06/27 10:40:49;;;;;;;2.10;1.45;;;;;;;28.28;45.52;94914.13;5036712;28;20029;-81
2021/06/27 10:43:14;;;;;;;1.92;1.20;;;;;;;28.50;45.14;94949.91;5032530;28;20427;-75
2021/06/27 10:45:40;;;;;;;2.65;1.23;;;;;;;28.58;45.07;94949.94;5052824;28;20027;-77
2021/06/27 10:48:33;;;;;;;3.13;1.48;;;;;;;28.62;45.45;94947.59;5050596;28;20025;-77
2021/06/27 10:51:00;;;;;;;3.10;1.50;;;;;;;28.69;45.08;94950.38;5053063;28;20062;-78
2021/06/27 10:53:26;;;;;;;2.53;1.75;;;;;;;28.70;44.45;94945.59;5050885;28;20103;-75
2021/06/27 10:55:58;;;;;;;3.28;1.65;;;;;;;28.64;44.67;94945.00;5053669;28;20089;-75
2021/06/27 10:58:35;;;;;;;2.45;1.40;;;;;;;28.66;45.10;94947.97;5055390;28;20037;-77
2021/06/27 11:01:01;;;;;;;3.08;1.60;;;;;;;28.38;46.13;94915.09;5054295;28;20024;-80
2021/06/27 11:03:26;;;;;;;2.88;1.77;;;;;;;28.61;46.71;94944.09;5053558;28;20435;-77
2021/06/27 11:05:56;;;;;;;1.80;1.20;;;;;;;28.48;46.75;94938.75;5059624;28;20029;-76
2021/06/27 11:08:48;;;;;;;2.92;1.40;;;;;;;28.32;46.36;94939.22;5049661;28;20032;-79
2021/06/27 11:11:24;;;;;;;2.58;1.60;;;;;;;28.00;46.08;94886.72;5048937;28;20037;-88
2021/06/27 11:14:08;;;;;;;3.00;1.50;;;;;;;28.21;45.78;94939.56;5058278;28;20446;-77
2021/06/27 11:16:34;;;;;;;3.17;1.60;;;;;;;28.17;45.82;94933.69;5057057;28;20039;-80
2021/06/27 11:19:00;;;;;;;3.72;1.75;;;;;;;28.15;46.31;94933.50;5026258;28;20055;-79
2021/06/27 11:21:37;;;;;;;1.98;1.35;;;;;;;28.19;46.26;94930.38;5057332;28;20033;-75
2021/06/27 11:24:03;;;;;;;2.17;1.38;;;;;;;28.30;47.68;94930.81;5052171;28;20086;-74
2021/06/27 11:26:38;;;;;;;3.72;1.70;;;;;;;28.36;47.29;94945.13;5058405;28;20032;-75
2021/06/27 11:29:25;;;;;;;2.55;1.35;;;;;;;28.45;46.56;94941.84;5050482;28;20029;-77
2021/06/27 11:31:51;;;;;;;2.35;1.42;;;;;;;28.51;46.54;94934.19;5049338;28;20082;-76